Julien, Iowa
Current Conditions -  °F | °C
As of 1:53 PM on Saturday 25 Oct 2014 (Local Time) from KDBQ Reporting Station
Clear Clear  
Wind Chill: 67°   Ceiling: Unl
Heat Index: 67°   Visibility: 10mi
Dew Point: 33°   Wind: 14mph
Humidity: 28%   Direction: 320°NW
Pressure: 30.02"   Gusts: 23mph
Location:  42.549°N, 90.6988°W
Report Text: KDBQ 251853Z 32012G20KT 10SM CLR 19/01 A3002 RMK AO2 SLP163 T01940006
Loading
Personal Weather Stations






























Interactive Weather Map
Tropical Storm Tracking
New forecast layout! Learn more

10-Day Weather Forecast

Advertisements
Track Severe Weather on mobile